Time;durP1;ratioP1;P1;durP2;ratioP2;P2;SDS_P1;SDS_P2;PMS_P1;PMS_P2;Temp;Humidity;BMP_temperature;BMP_pressure;BME280_temperature;BME280_humidity;BME280_pressure;Samples;Min_cycle;Max_cycle;Signal;HPM_P1;HPM_P2
2022/12/09 00:01:18;;;;;;;51.50;20.60;;;;;;;4.38;92.74;98755.60;1607890;88;21141;-78
2022/12/09 00:03:47;;;;;;;44.73;18.98;;;;;;;4.37;93.57;98759.02;1624073;88;21051;-77
2022/12/09 00:06:18;;;;;;;46.58;21.12;;;;;;;4.39;92.08;98762.44;1598222;89;21074;-78
2022/12/09 00:08:46;;;;;;;57.17;20.68;;;;;;;4.35;92.16;98762.48;1604845;88;21109;-78
2022/12/09 00:11:14;;;;;;;44.93;19.27;;;;;;;4.31;93.48;98756.48;1615000;88;21022;-78
2022/12/09 00:13:42;;;;;;;49.67;19.90;;;;;;;4.29;92.75;98756.92;1602059;88;21057;-78
2022/12/09 00:16:13;;;;;;;44.13;19.65;;;;;;;4.30;92.52;98757.81;1603469;88;21132;-78
2022/12/09 00:18:41;;;;;;;51.68;20.60;;;;;;;4.27;92.46;98766.37;1618934;88;21069;-78
2022/12/09 00:21:30;;;;;;;46.85;20.00;;;;;;;4.27;93.37;98755.23;1606505;88;21105;-79
2022/12/09 00:24:02;;;;;;;44.83;19.80;;;;;;;4.25;93.71;98760.82;1624438;88;21067;-81
2022/12/09 00:26:31;;;;;;;45.67;19.57;;;;;;;4.27;93.22;98774.53;1610581;88;21085;-77
2022/12/09 00:29:00;;;;;;;44.88;20.52;;;;;;;4.27;93.25;98770.67;1603179;88;21109;-78
2022/12/09 00:31:32;;;;;;;50.33;20.15;;;;;;;4.27;93.02;98769.39;1609418;87;21046;-78
2022/12/09 00:34:03;;;;;;;51.55;19.77;;;;;;;4.25;93.26;98761.66;1604736;88;21050;-78
2022/12/09 00:36:32;;;;;;;48.35;19.82;;;;;;;4.27;93.29;98762.52;1611959;88;21014;-77
2022/12/09 00:39:00;;;;;;;48.33;19.82;;;;;;;4.29;93.16;98759.94;1605410;88;21054;-78
2022/12/09 00:41:28;;;;;;;47.50;18.27;;;;;;;4.27;93.99;98765.53;1616027;88;21515;-78
2022/12/09 00:43:57;;;;;;;52.10;20.15;;;;;;;4.27;94.24;98760.38;1603293;88;21014;-78
2022/12/09 00:46:24;;;;;;;46.70;19.95;;;;;;;4.26;93.86;98752.22;1615751;88;21089;-78
2022/12/09 00:48:52;;;;;;;51.40;20.15;;;;;;;4.22;94.13;98750.53;1601881;88;21037;-77
2022/12/09 00:51:23;;;;;;;44.03;18.85;;;;;;;4.16;94.29;98747.14;1598237;88;21065;-78
2022/12/09 00:53:53;;;;;;;51.50;20.80;;;;;;;4.13;94.15;98725.27;1583107;90;21578;-78
2022/12/09 00:56:25;;;;;;;50.78;18.67;;;;;;;4.10;93.36;98733.44;1617065;88;21070;-78
2022/12/09 00:58:52;;;;;;;45.05;19.82;;;;;;;4.07;93.78;98736.88;1605800;88;20999;-78
2022/12/09 01:01:21;;;;;;;38.00;18.00;;;;;;;3.99;93.75;98749.77;1614839;88;21150;-78
2022/12/09 01:03:48;;;;;;;50.12;20.30;;;;;;;3.96;93.74;98757.96;1600720;88;21057;-78
2022/12/09 01:06:20;;;;;;;39.38;19.35;;;;;;;3.95;94.02;98751.09;1613782;88;21061;-79
2022/12/09 01:08:48;;;;;;;42.25;19.48;;;;;;;3.93;94.29;98752.38;1612014;88;21090;-78
2022/12/09 01:11:25;;;;;;;46.30;17.40;;;;;;;3.90;93.80;98741.23;1616737;88;21014;-78
2022/12/09 01:13:56;;;;;;;43.10;18.95;;;;;;;3.91;93.46;98747.67;1607987;88;21078;-78
2022/12/09 01:16:26;;;;;;;51.25;20.15;;;;;;;3.86;93.68;98755.84;1613294;88;21539;-78
2022/12/09 01:18:58;;;;;;;47.80;20.55;;;;;;;3.84;94.08;98753.72;1626960;87;21028;-78
2022/12/09 01:21:27;;;;;;;41.50;18.00;;;;;;;3.85;94.08;98753.28;1612329;88;21030;-78
2022/12/09 01:23:55;;;;;;;42.10;17.87;;;;;;;3.86;93.30;98754.97;1617289;88;21074;-78
2022/12/09 01:26:23;;;;;;;45.23;18.98;;;;;;;3.86;93.66;98766.55;1610885;88;20991;-78
2022/12/09 01:28:51;;;;;;;49.23;17.82;;;;;;;3.85;94.34;98773.41;1617330;88;21082;-78
2022/12/09 01:31:22;;;;;;;51.63;18.95;;;;;;;3.85;94.39;98762.27;1601845;89;21043;-78
2022/12/09 01:33:50;;;;;;;56.35;21.10;;;;;;;3.88;93.93;98750.67;1611380;89;22002;-78
2022/12/09 01:36:22;;;;;;;51.80;20.60;;;;;;;3.88;94.92;98764.41;1584891;89;21071;-79
2022/12/09 01:38:50;;;;;;;46.20;18.75;;;;;;;3.81;94.90;98771.70;1605574;89;21023;-79
2022/12/09 01:41:20;;;;;;;51.75;20.92;;;;;;;3.77;94.79;98767.00;1585892;89;21066;-78
2022/12/09 01:44:24;;;;;;;49.00;18.30;;;;;;;3.81;95.20;98764.00;1586978;89;21075;-78
2022/12/09 01:46:58;;;;;;;53.33;20.25;;;;;;;3.83;94.83;98756.28;1582203;89;21733;-78
2022/12/09 01:49:33;;;;;;;43.63;19.82;;;;;;;3.85;95.03;98749.42;1605589;89;21087;-77
2022/12/09 01:52:06;;;;;;;38.35;18.10;;;;;;;3.87;94.45;98755.41;1590548;89;21891;-77
2022/12/09 01:54:34;;;;;;;48.10;20.72;;;;;;;3.87;95.05;98754.12;1606495;89;21995;-77
2022/12/09 01:57:04;;;;;;;45.78;19.48;;;;;;;3.87;95.93;98753.69;1594002;89;21067;-77
2022/12/09 01:59:31;;;;;;;49.00;19.73;;;;;;;3.91;95.25;98753.25;1599620;89;21070;-78
2022/12/09 02:02:02;;;;;;;41.33;18.73;;;;;;;3.90;95.52;98746.38;1596397;89;21062;-78
2022/12/09 02:04:36;;;;;;;43.23;18.52;;;;;;;3.85;96.47;98746.84;1598612;89;21537;-79
2022/12/09 02:07:09;;;;;;;46.13;18.10;;;;;;;3.86;96.29;98762.69;1600337;89;20991;-78
2022/12/09 02:09:38;;;;;;;50.83;19.00;;;;;;;3.87;95.80;98751.55;1620808;87;20995;-77
2022/12/09 02:12:20;;;;;;;46.28;18.98;;;;;;;3.86;95.43;98748.54;1595659;89;21034;-79
2022/12/09 02:14:55;;;;;;;47.95;19.85;;;;;;;3.94;95.01;98748.11;1606960;87;21030;-78
2022/12/09 02:17:46;;;;;;;48.20;19.75;;;;;;;3.95;95.10;98747.23;1597820;87;21027;-78
2022/12/09 02:20:43;;;;;;;42.60;19.12;;;;;;;4.00;95.05;98763.52;1603577;89;21493;-78
2022/12/09 02:23:18;;;;;;;49.80;20.02;;;;;;;3.98;95.19;98754.51;1593202;87;21928;-78
2022/12/09 02:25:53;;;;;;;50.75;19.62;;;;;;;4.02;94.35;98762.20;1613992;89;21038;-78
2022/12/09 02:28:53;;;;;;;48.55;19.17;;;;;;;4.04;94.40;98748.48;1592194;89;21091;-78
2022/12/09 02:32:16;;;;;;;47.53;19.48;;;;;;;4.05;94.84;98754.48;1587182;88;21122;-78
2022/12/09 02:35:11;;;;;;;48.90;19.02;;;;;;;4.09;95.22;98737.73;1598637;89;21123;-78
2022/12/09 02:37:59;;;;;;;41.10;18.92;;;;;;;4.14;95.11;98732.14;1605824;89;21602;-77
2022/12/09 02:41:04;;;;;;;45.35;18.77;;;;;;;4.15;94.97;98745.41;1583968;90;21035;-78
2022/12/09 02:43:38;;;;;;;42.70;18.62;;;;;;;4.17;95.05;98759.56;1590319;90;21058;-78
2022/12/09 02:46:09;;;;;;;42.03;19.15;;;;;;;4.19;94.74;98766.84;1606613;89;21094;-77
2022/12/09 02:48:41;;;;;;;42.90;18.05;;;;;;;4.16;94.54;98770.73;1605971;88;21030;-78
2022/12/09 02:51:13;;;;;;;49.20;19.30;;;;;;;4.21;94.95;98775.85;1600991;89;21102;-77
2022/12/09 02:53:46;;;;;;;48.87;19.12;;;;;;;4.26;94.81;98774.97;1604037;87;21050;-78
2022/12/09 02:56:16;;;;;;;42.55;18.82;;;;;;;4.27;94.60;98768.95;1590851;89;21078;-78
2022/12/09 02:58:51;;;;;;;49.63;18.80;;;;;;;4.26;94.34;98767.25;1586115;89;21025;-78
2022/12/09 03:01:24;;;;;;;45.00;18.48;;;;;;;4.28;94.34;98767.25;1585519;89;21086;-78
2022/12/09 03:03:53;;;;;;;43.98;17.62;;;;;;;4.28;94.14;98766.81;1578663;89;21551;-78
2022/12/09 03:06:26;;;;;;;45.70;16.87;;;;;;;4.29;94.14;98766.37;1594547;89;21031;-78
2022/12/09 03:09:08;;;;;;;39.48;17.20;;;;;;;4.32;94.08;98771.52;1586267;89;21014;-78
2022/12/09 03:11:36;;;;;;;38.17;17.65;;;;;;;4.30;93.71;98775.38;1596572;89;21952;-78
2022/12/09 03:14:20;;;;;;;42.45;17.52;;;;;;;4.23;93.32;98792.14;1600953;89;21551;-78
2022/12/09 03:17:02;;;;;;;38.98;16.50;;;;;;;4.21;93.63;98785.70;1599362;89;21583;-78
2022/12/09 03:20:09;;;;;;;46.48;18.60;;;;;;;4.21;93.60;98784.42;1609267;89;21010;-78
2022/12/09 03:22:40;;;;;;;49.40;19.07;;;;;;;4.18;93.61;98787.88;1596272;89;21027;-78
2022/12/09 03:25:16;;;;;;;41.50;18.27;;;;;;;4.21;93.73;98774.56;1598547;89;21082;-78
2022/12/09 03:27:52;;;;;;;40.23;18.65;;;;;;;4.18;93.79;98772.88;1580923;90;21102;-77
2022/12/09 03:30:20;;;;;;;41.95;18.80;;;;;;;4.19;93.65;98781.84;1592755;89;21074;-77
2022/12/09 03:32:50;;;;;;;38.25;17.40;;;;;;;4.15;93.77;98763.87;1609318;88;21045;-77
2022/12/09 03:35:25;;;;;;;40.67;18.92;;;;;;;4.15;94.08;98780.59;1621673;88;21085;-78
2022/12/09 03:37:53;;;;;;;41.83;18.27;;;;;;;4.21;93.81;98784.86;1588051;88;21907;-77
2022/12/09 03:40:27;;;;;;;42.27;18.25;;;;;;;4.18;93.82;98780.15;1607449;88;21684;-78
2022/12/09 03:43:06;;;;;;;41.10;16.57;;;;;;;4.22;93.97;98774.56;1592335;89;21383;-77
2022/12/09 03:45:34;;;;;;;36.42;16.30;;;;;;;4.24;93.89;98774.13;1607060;88;21078;-77
2022/12/09 03:48:02;;;;;;;38.45;16.00;;;;;;;4.28;93.85;98766.81;1602180;88;21713;-76
2022/12/09 03:50:35;;;;;;;34.10;16.32;;;;;;;4.25;93.60;98763.39;1622767;88;21089;-78
2022/12/09 03:53:17;;;;;;;37.70;17.87;;;;;;;4.26;93.62;98775.38;1603888;88;21349;-78
2022/12/09 03:56:09;;;;;;;38.80;17.45;;;;;;;4.24;93.39;98794.71;1610171;88;21109;-77
2022/12/09 03:58:39;;;;;;;42.60;16.90;;;;;;;4.22;93.23;98803.28;1603408;88;21045;-77
2022/12/09 04:01:08;;;;;;;43.28;17.40;;;;;;;4.21;93.33;98778.42;1622577;88;21057;-77
2022/12/09 04:03:37;;;;;;;42.30;17.85;;;;;;;4.19;93.44;98789.56;1600946;88;21094;-77
2022/12/09 04:06:06;;;;;;;44.98;18.10;;;;;;;4.22;93.54;98795.56;1610859;88;21374;-78
2022/12/09 04:08:33;;;;;;;42.55;18.05;;;;;;;4.24;93.62;98798.98;1599602;88;21022;-77
2022/12/09 04:11:01;;;;;;;43.42;18.50;;;;;;;4.21;93.31;98786.99;1609423;88;21061;-77
2022/12/09 04:13:28;;;;;;;46.13;18.40;;;;;;;4.19;93.40;98788.72;1602475;88;21625;-78
2022/12/09 04:15:56;;;;;;;43.05;17.15;;;;;;;4.21;93.71;98783.57;1597080;89;21113;-77
2022/12/09 04:18:24;;;;;;;35.65;16.85;;;;;;;4.23;93.61;98779.27;1597009;89;21069;-78
2022/12/09 04:20:51;;;;;;;41.00;18.55;;;;;;;4.29;93.90;98779.23;1596932;89;21105;-78
2022/12/09 04:23:19;;;;;;;41.65;17.50;;;;;;;4.31;93.81;98764.20;1577450;90;21118;-78
2022/12/09 04:25:46;;;;;;;40.40;17.65;;;;;;;4.35;93.73;98772.77;1597129;89;21117;-78
2022/12/09 04:28:13;;;;;;;43.08;17.57;;;;;;;4.38;93.59;98779.20;1596981;89;21069;-78
2022/12/09 04:30:46;;;;;;;39.95;18.25;;;;;;;4.37;93.19;98779.61;1597028;89;21355;-78
2022/12/09 04:33:13;;;;;;;51.02;23.15;;;;;;;4.33;93.17;98774.50;1586110;90;21087;-78
2022/12/09 04:35:41;;;;;;;45.12;20.20;;;;;;;4.29;93.00;98786.52;1579593;90;21035;-78
2022/12/09 04:38:08;;;;;;;47.20;18.12;;;;;;;4.29;93.11;98803.69;1590215;90;21034;-78
2022/12/09 04:40:36;;;;;;;63.80;30.30;;;;;;;4.26;93.00;98799.83;1589970;90;21137;-78
2022/12/09 04:43:04;;;;;;;46.77;21.37;;;;;;;4.25;93.00;98782.70;1583592;90;20980;-78
2022/12/09 04:45:32;;;;;;;47.43;21.75;;;;;;;4.25;93.29;98786.55;1600873;89;21038;-78
2022/12/09 04:48:00;;;;;;;47.43;20.68;;;;;;;4.24;93.00;98782.25;1609884;89;21062;-78
2022/12/09 04:50:27;;;;;;;48.52;19.87;;;;;;;4.26;93.12;98771.52;1590242;89;21019;-78
2022/12/09 04:52:55;;;;;;;44.88;20.05;;;;;;;4.25;93.08;98771.11;1607685;89;21054;-78
2022/12/09 04:55:23;;;;;;;45.67;18.95;;;;;;;4.27;92.60;98766.81;1594394;89;21115;-78
2022/12/09 04:57:50;;;;;;;49.70;21.52;;;;;;;4.21;92.72;98770.70;1604894;89;21050;-77
2022/12/09 05:00:19;;;;;;;42.38;18.07;;;;;;;4.21;92.54;98783.13;1606222;89;21058;-78
2022/12/09 05:02:46;;;;;;;50.03;21.62;;;;;;;4.13;92.62;98782.31;1603246;89;21062;-78
2022/12/09 05:05:14;;;;;;;46.02;19.98;;;;;;;4.09;92.62;98781.47;1606022;89;21057;-78
2022/12/09 05:07:42;;;;;;;53.92;21.23;;;;;;;4.01;92.62;98766.94;1588737;89;21598;-78
2022/12/09 05:10:10;;;;;;;52.95;19.67;;;;;;;4.07;93.29;98776.75;1604414;89;21569;-78
2022/12/09 05:12:37;;;;;;;43.08;20.20;;;;;;;4.09;93.62;98781.91;1590604;89;21558;-78
2022/12/09 05:15:06;;;;;;;53.20;19.87;;;;;;;4.12;93.42;98780.62;1599466;89;21674;-78
2022/12/09 05:17:34;;;;;;;43.52;18.15;;;;;;;4.08;92.78;98780.17;1592576;89;21613;-78
2022/12/09 05:20:02;;;;;;;47.45;19.55;;;;;;;4.03;93.28;98785.35;1599366;89;21106;-77
2022/12/09 05:22:30;;;;;;;47.03;18.20;;;;;;;4.06;93.78;98778.92;1595441;88;21062;-79
2022/12/09 05:24:58;;;;;;;46.50;19.40;;;;;;;4.08;93.64;98782.75;1603893;89;21069;-78
2022/12/09 05:27:26;;;;;;;37.75;17.65;;;;;;;4.12;93.86;98778.89;1589551;89;21082;-78
2022/12/09 05:29:53;;;;;;;54.85;22.02;;;;;;;4.17;93.50;98785.30;1603795;89;21058;-78
2022/12/09 05:32:21;;;;;;;60.15;26.07;;;;;;;4.15;93.44;98785.30;1605344;88;21068;-78
2022/12/09 05:34:48;;;;;;;49.67;21.52;;;;;;;4.15;93.44;98778.02;1617858;88;21353;-77
2022/12/09 05:37:16;;;;;;;44.38;19.62;;;;;;;4.13;93.29;98778.45;1601042;88;20985;-78
2022/12/09 05:39:43;;;;;;;60.03;23.07;;;;;;;4.08;92.89;98787.89;1619876;88;21057;-78
2022/12/09 05:42:12;;;;;;;51.25;20.97;;;;;;;4.05;93.91;98778.92;1596486;88;21850;-77
2022/12/09 05:44:39;;;;;;;46.48;18.50;;;;;;;4.05;93.75;98777.20;1599749;88;21129;-78
2022/12/09 05:47:07;;;;;;;47.27;17.92;;;;;;;4.02;93.39;98779.80;1616721;88;21132;-78
2022/12/09 05:49:34;;;;;;;45.43;17.73;;;;;;;3.92;93.34;98774.23;1607524;88;21138;-78
2022/12/09 05:52:02;;;;;;;43.50;19.05;;;;;;;3.89;93.30;98782.83;1620415;88;21077;-77
2022/12/09 05:54:29;;;;;;;51.68;21.42;;;;;;;3.89;93.60;98776.39;1595835;88;21062;-78
2022/12/09 05:56:59;;;;;;;43.95;19.07;;;;;;;3.79;94.25;98776.84;1603587;88;21027;-78
2022/12/09 05:59:26;;;;;;;50.75;20.65;;;;;;;3.77;94.20;98768.72;1600330;88;21335;-78
2022/12/09 06:01:54;;;;;;;49.38;19.77;;;;;;;3.83;95.03;98764.00;1620553;88;21102;-78
2022/12/09 06:04:21;;;;;;;56.40;22.75;;;;;;;3.90;95.37;98769.13;1605949;88;22351;-78
2022/12/09 06:06:49;;;;;;;60.30;21.45;;;;;;;3.93;94.91;98777.25;1618158;88;22182;-78
2022/12/09 06:09:17;;;;;;;58.42;22.30;;;;;;;3.99;95.22;98785.78;1605764;88;21678;-77
2022/12/09 06:11:45;;;;;;;52.35;21.52;;;;;;;4.01;94.40;98802.95;1616682;88;21073;-78
2022/12/09 06:14:12;;;;;;;43.80;17.45;;;;;;;3.93;94.71;98793.52;1611111;88;21062;-78
2022/12/09 06:16:40;;;;;;;44.23;17.60;;;;;;;3.87;94.31;98790.98;1598015;88;21118;-78
2022/12/09 06:19:13;;;;;;;37.38;16.12;;;;;;;3.82;94.46;98810.72;1598024;88;21069;-78
2022/12/09 06:21:41;;;;;;;42.00;18.15;;;;;;;3.80;94.10;98817.59;1599778;88;21062;-77
2022/12/09 06:24:09;;;;;;;44.50;19.15;;;;;;;3.76;94.66;98822.28;1614986;88;21072;-77
2022/12/09 06:26:36;;;;;;;50.90;21.27;;;;;;;3.71;94.82;98815.02;1601634;88;21049;-79
2022/12/09 06:29:04;;;;;;;59.15;23.60;;;;;;;3.71;95.41;98815.88;1616851;88;21061;-77
2022/12/09 06:31:31;;;;;;;57.25;22.87;;;;;;;3.70;94.82;98818.03;1603523;88;21125;-78
2022/12/09 06:33:59;;;;;;;53.38;20.77;;;;;;;3.70;95.18;98813.30;1617751;88;21074;-79
2022/12/09 06:36:29;;;;;;;55.92;22.60;;;;;;;3.74;95.20;98812.02;1605912;88;21038;-78
2022/12/09 06:38:58;;;;;;;49.63;20.27;;;;;;;3.78;95.69;98810.30;1617693;88;21047;-78
2022/12/09 06:41:25;;;;;;;59.03;23.38;;;;;;;3.83;95.26;98800.00;1611749;88;21086;-77
2022/12/09 06:43:58;;;;;;;58.28;23.73;;;;;;;3.82;95.31;98800.44;1605497;88;21010;-77
2022/12/09 06:46:27;;;;;;;53.67;20.23;;;;;;;3.84;95.47;98806.44;1604404;88;21046;-77
2022/12/09 06:48:55;;;;;;;58.87;21.70;;;;;;;3.88;95.33;98808.54;1614893;88;21010;-77
2022/12/09 06:51:23;;;;;;;57.83;21.93;;;;;;;3.82;95.00;98813.70;1610772;88;21082;-78
2022/12/09 06:53:50;;;;;;;59.35;22.40;;;;;;;3.85;95.61;98823.56;1614994;88;21455;-76
2022/12/09 06:56:18;;;;;;;59.08;22.60;;;;;;;3.89;95.88;98812.40;1611435;88;22262;-77
2022/12/09 06:58:46;;;;;;;67.25;23.12;;;;;;;3.93;95.37;98820.97;1638898;87;21629;-77
2022/12/09 07:01:22;;;;;;;62.03;23.22;;;;;;;3.90;95.49;98806.41;1614623;88;21637;-78
2022/12/09 07:03:54;;;;;;;67.78;22.98;;;;;;;3.88;95.59;98807.25;1605213;88;22205;-78
2022/12/09 07:06:40;;;;;;;54.80;21.65;;;;;;;3.92;96.15;98814.98;1617222;88;21471;-77
2022/12/09 07:09:12;;;;;;;56.00;21.07;;;;;;;3.92;96.32;98812.81;1606587;88;21034;-78
2022/12/09 07:11:41;;;;;;;56.10;21.07;;;;;;;3.89;95.41;98810.27;1617970;88;21018;-78
2022/12/09 07:14:09;;;;;;;64.45;22.93;;;;;;;3.86;95.74;98810.26;1611226;88;20990;-78
2022/12/09 07:16:37;;;;;;;59.35;19.80;;;;;;;3.89;96.52;98814.13;1606993;88;21038;-79
2022/12/09 07:19:05;;;;;;;62.93;22.50;;;;;;;3.94;96.03;98817.55;1598770;89;21018;-78
2022/12/09 07:21:33;;;;;;;61.35;22.85;;;;;;;4.02;96.04;98809.38;1597932;89;21125;-78
2022/12/09 07:24:02;;;;;;;65.28;21.45;;;;;;;4.05;96.09;98805.49;1597195;89;21101;-78
2022/12/09 07:26:31;;;;;;;58.78;21.65;;;;;;;4.08;95.99;98809.36;1597477;89;21045;-79
2022/12/09 07:29:01;;;;;;;66.10;22.17;;;;;;;4.09;96.45;98807.19;1598144;89;20978;-78
2022/12/09 07:31:29;;;;;;;73.40;23.10;;;;;;;4.16;96.27;98805.47;1598397;89;21030;-78
2022/12/09 07:33:58;;;;;;;78.70;23.27;;;;;;;4.18;96.10;98805.03;1607891;88;21025;-78
2022/12/09 07:36:28;;;;;;;66.07;23.02;;;;;;;4.25;96.70;98795.56;1599708;89;21034;-78
2022/12/09 07:39:00;;;;;;;62.55;22.30;;;;;;;4.34;96.56;98805.38;1598211;89;21133;-79
2022/12/09 07:41:28;;;;;;;61.00;22.98;;;;;;;4.41;96.46;98806.20;1596473;89;21034;-78
2022/12/09 07:43:55;;;;;;;55.70;20.20;;;;;;;4.49;96.55;98804.44;1597971;89;21006;-78
2022/12/09 07:46:27;;;;;;;57.17;20.85;;;;;;;4.54;96.26;98800.13;1619514;88;21050;-78
2022/12/09 07:48:56;;;;;;;60.52;23.15;;;;;;;4.63;96.45;98797.92;1613470;88;21045;-79
2022/12/09 07:51:24;;;;;;;54.10;22.07;;;;;;;4.70;96.25;98794.46;1606818;88;21030;-78
2022/12/09 07:53:52;;;;;;;55.78;20.65;;;;;;;4.72;95.75;98807.34;1616879;88;21038;-78
2022/12/09 07:56:20;;;;;;;57.23;20.55;;;;;;;4.78;95.89;98803.43;1607042;88;21022;-78
2022/12/09 07:58:52;;;;;;;62.10;21.35;;;;;;;4.77;95.53;98801.70;1619171;88;21014;-78
2022/12/09 08:01:23;;;;;;;66.28;23.62;;;;;;;4.68;95.77;98800.49;1608228;88;21083;-78
2022/12/09 08:03:51;;;;;;;50.78;20.08;;;;;;;4.72;95.74;98799.61;1602709;88;21018;-78
2022/12/09 08:06:23;;;;;;;54.05;20.20;;;;;;;4.75;95.72;98805.57;1598706;88;21041;-79
2022/12/09 08:08:50;;;;;;;51.98;18.98;;;;;;;4.77;95.39;98815.88;1623214;88;21014;-78
2022/12/09 08:11:25;;;;;;;54.67;21.10;;;;;;;4.67;95.38;98811.20;1582429;89;21067;-79
2022/12/09 08:13:55;;;;;;;49.58;17.87;;;;;;;4.65;95.33;98813.38;1612673;88;20990;-78
2022/12/09 08:16:23;;;;;;;52.08;20.32;;;;;;;4.66;95.81;98813.81;1604614;88;21006;-78
2022/12/09 08:18:52;;;;;;;54.25;20.43;;;;;;;4.64;95.50;98810.39;1614190;88;20998;-78
2022/12/09 08:21:27;;;;;;;49.55;20.90;;;;;;;4.62;95.70;98806.53;1603891;88;21002;-78
2022/12/09 08:23:58;;;;;;;53.30;19.17;;;;;;;4.67;95.98;98803.48;1613775;88;20983;-78
2022/12/09 08:26:28;;;;;;;57.60;20.88;;;;;;;4.73;95.89;98802.59;1605937;88;20995;-78
2022/12/09 08:28:56;;;;;;;43.68;17.52;;;;;;;4.77;95.80;98801.70;1602872;88;21531;-78
2022/12/09 08:31:25;;;;;;;42.50;17.95;;;;;;;4.81;95.51;98793.53;1606557;88;21022;-79
2022/12/09 08:33:53;;;;;;;48.17;19.57;;;;;;;4.81;95.37;98787.09;1600837;88;21514;-78
2022/12/09 08:36:26;;;;;;;46.75;18.75;;;;;;;4.81;95.28;98789.67;1607222;88;21003;-78
2022/12/09 08:38:54;;;;;;;48.17;19.45;;;;;;;4.78;95.30;98787.53;1604477;88;21542;-78
2022/12/09 08:41:33;;;;;;;49.35;18.60;;;;;;;4.86;95.34;98781.05;1610091;88;21078;-78
2022/12/09 08:43:54;;;;;;;45.40;17.77;;;;;;;4.82;95.06;98774.21;1604486;87;21038;-78
2022/12/09 08:46:22;;;;;;;47.05;16.90;;;;;;;4.84;95.34;98784.52;1611892;88;21129;-78
2022/12/09 08:48:49;;;;;;;44.53;17.42;;;;;;;4.90;95.26;98775.00;1602065;88;21078;-79
2022/12/09 08:51:17;;;;;;;40.30;17.17;;;;;;;4.94;95.06;98766.39;1612974;88;21022;-78
2022/12/09 08:53:44;;;;;;;45.70;17.48;;;;;;;4.96;94.89;98765.09;1598267;89;21050;-78
2022/12/09 08:56:15;;;;;;;46.15;17.25;;;;;;;5.00;94.93;98777.09;1615469;88;20983;-78
2022/12/09 08:58:42;;;;;;;47.90;18.60;;;;;;;4.96;94.91;98756.92;1604967;88;21058;-78
2022/12/09 09:01:19;;;;;;;47.45;18.35;;;;;;;4.97;94.67;98760.34;1614205;88;21080;-78
2022/12/09 09:03:48;;;;;;;49.15;18.65;;;;;;;4.97;95.02;98750.05;1610569;88;21055;-78
2022/12/09 09:06:18;;;;;;;58.52;20.75;;;;;;;4.96;94.66;98740.18;1614519;88;21054;-78
2022/12/09 09:08:46;;;;;;;50.03;18.70;;;;;;;4.94;94.96;98741.06;1606224;88;21065;-78
2022/12/09 09:11:17;;;;;;;46.77;18.90;;;;;;;4.98;95.03;98736.31;1608361;88;21014;-77
2022/12/09 09:13:47;;;;;;;43.38;18.50;;;;;;;4.97;94.86;98725.16;1610929;88;21046;-78
2022/12/09 09:16:19;;;;;;;42.62;18.17;;;;;;;5.00;94.92;98716.54;1607502;88;21006;-78
2022/12/09 09:18:47;;;;;;;47.17;19.10;;;;;;;5.04;95.05;98713.51;1623880;88;21038;-78
2022/12/09 09:21:19;;;;;;;55.88;19.92;;;;;;;5.16;95.59;98712.10;1623687;88;21026;-77
2022/12/09 09:23:47;;;;;;;50.33;19.20;;;;;;;5.24;95.40;98700.44;1617971;88;21075;-77
2022/12/09 09:26:19;;;;;;;51.58;18.70;;;;;;;5.36;95.67;98707.59;1611306;88;21083;-79
2022/12/09 09:28:47;;;;;;;47.88;19.95;;;;;;;5.50;95.64;98701.45;1618817;87;21058;-76
2022/12/09 09:31:19;;;;;;;47.05;19.25;;;;;;;5.58;95.76;98691.90;1597475;88;21099;-78
2022/12/09 09:33:47;;;;;;;52.53;20.35;;;;;;;5.81;95.50;98692.05;1610749;88;21078;-77
2022/12/09 09:36:21;;;;;;;41.50;16.67;;;;;;;5.92;95.29;98688.47;1599094;88;21078;-78
2022/12/09 09:38:51;;;;;;;42.78;17.02;;;;;;;6.08;95.00;98689.16;1615519;88;21097;-79
2022/12/09 09:41:39;;;;;;;41.58;17.32;;;;;;;6.20;95.08;98685.55;1600226;88;21082;-79
2022/12/09 09:44:24;;;;;;;34.70;14.85;;;;;;;6.26;94.67;98688.48;1601833;88;21085;-79
2022/12/09 09:46:54;;;;;;;36.88;16.55;;;;;;;6.29;93.77;98679.42;1568588;88;21113;-78
2022/12/09 09:49:42;;;;;;;33.83;14.85;;;;;;;6.40;93.90;98671.51;1614599;88;21066;-78
2022/12/09 09:52:19;;;;;;;29.80;13.75;;;;;;;6.48;93.64;98681.28;1586779;88;21062;-78
2022/12/09 09:54:47;;;;;;;35.48;14.43;;;;;;;6.56;92.74;98676.84;1616337;88;21078;-78
2022/12/09 09:57:26;;;;;;;33.65;14.20;;;;;;;6.70;93.63;98672.75;1602878;88;21038;-76
2022/12/09 10:00:08;;;;;;;40.40;14.87;;;;;;;6.76;92.41;98668.78;1617922;88;21054;-78
2022/12/09 10:03:02;;;;;;;31.07;14.13;;;;;;;6.71;92.60;98663.70;1604773;88;21082;-78
2022/12/09 10:05:33;;;;;;;28.02;14.23;;;;;;;6.77;91.84;98661.45;1583324;88;20998;-78
2022/12/09 10:08:32;;;;;;;33.78;13.98;;;;;;;6.71;91.21;98649.48;1606778;88;21067;-78
2022/12/09 10:11:51;;;;;;;38.13;15.75;;;;;;;6.68;89.94;98642.22;1601294;88;21081;-78
2022/12/09 10:14:45;;;;;;;28.90;13.15;;;;;;;6.61;89.87;98649.23;1606754;88;21071;-78
2022/12/09 10:17:33;;;;;;;30.90;14.10;;;;;;;6.54;90.54;98646.31;1606550;88;21078;-77
2022/12/09 10:20:12;;;;;;;30.75;15.32;;;;;;;6.57;90.83;98643.70;1613989;88;21087;-77
2022/12/09 10:22:47;;;;;;;32.10;15.03;;;;;;;6.55;89.94;98637.70;1607577;88;21062;-78
2022/12/09 10:25:31;;;;;;;33.80;15.65;;;;;;;6.59;90.32;98632.06;1615662;88;21066;-78
2022/12/09 10:28:31;;;;;;;34.75;14.60;;;;;;;6.54;90.09;98634.70;1609082;88;21038;-79
2022/12/09 10:30:59;;;;;;;34.98;15.68;;;;;;;6.54;90.76;98623.92;1622005;88;21094;-76
2022/12/09 10:33:30;;;;;;;40.48;14.87;;;;;;;6.61;90.60;98625.14;1601299;88;21110;-78
2022/12/09 10:35:58;;;;;;;28.95;14.05;;;;;;;6.65;90.14;98623.76;1612736;89;21065;-78
2022/12/09 10:38:28;;;;;;;36.98;17.65;;;;;;;6.66;90.67;98612.98;1619737;87;21114;-78
2022/12/09 10:41:10;;;;;;;42.03;16.20;;;;;;;6.74;90.57;98621.03;1595192;89;21119;-76
2022/12/09 10:43:42;;;;;;;36.83;16.75;;;;;;;6.84;89.80;98617.81;1599475;88;21050;-77
2022/12/09 10:46:21;;;;;;;35.45;16.37;;;;;;;6.82;89.94;98618.28;1609078;89;21070;-76
2022/12/09 10:48:54;;;;;;;33.35;15.83;;;;;;;6.82;89.90;98607.95;1599185;88;21035;-78
2022/12/09 10:51:28;;;;;;;36.35;16.45;;;;;;;6.91;90.44;98609.09;1592386;89;21023;-78
2022/12/09 10:54:13;;;;;;;45.23;15.90;;;;;;;6.95;90.63;98600.84;1615367;89;21092;-79
2022/12/09 10:57:03;;;;;;;37.73;16.50;;;;;;;7.01;90.52;98608.94;1615417;88;21486;-77
2022/12/09 10:59:31;;;;;;;33.55;15.55;;;;;;;7.03;89.95;98605.87;1598743;88;21039;-77
2022/12/09 11:02:04;;;;;;;37.28;16.02;;;;;;;6.97;89.53;98606.39;1593804;89;21091;-77
2022/12/09 11:04:41;;;;;;;33.58;16.50;;;;;;;6.99;90.25;98605.53;1600257;88;20999;-78
2022/12/09 11:07:24;;;;;;;34.27;16.35;;;;;;;6.97;90.33;98607.69;1596341;89;20995;-78
2022/12/09 11:09:57;;;;;;;42.00;16.25;;;;;;;7.03;90.62;98600.71;1600957;89;20986;-77
2022/12/09 11:12:31;;;;;;;30.70;15.55;;;;;;;7.10;90.60;98596.69;1596550;89;21031;-78
2022/12/09 11:15:07;;;;;;;36.60;15.03;;;;;;;7.06;90.13;98597.64;1602548;88;21508;-77
2022/12/09 11:17:38;;;;;;;37.98;15.43;;;;;;;7.08;89.88;98585.53;1598561;89;21063;-77
2022/12/09 11:20:26;;;;;;;36.33;17.30;;;;;;;7.15;90.41;98579.34;1602775;87;21094;-76
2022/12/09 11:23:17;;;;;;;36.35;15.90;;;;;;;7.25;90.79;98577.43;1600273;88;21046;-77
2022/12/09 11:26:02;;;;;;;39.23;17.15;;;;;;;7.41;91.03;98575.84;1578467;89;21130;-78
2022/12/09 11:28:39;;;;;;;40.15;17.00;;;;;;;7.55;90.98;98573.36;1598820;89;21079;-78
2022/12/09 11:31:19;;;;;;;38.53;17.35;;;;;;;7.60;90.80;98569.40;1601809;88;21066;-78
2022/12/09 11:33:52;;;;;;;37.00;18.52;;;;;;;7.68;90.60;98566.20;1607335;88;21058;-77
2022/12/09 11:36:33;;;;;;;40.63;18.12;;;;;;;7.74;90.36;98564.77;1598686;89;21109;-78
2022/12/09 11:39:34;;;;;;;44.60;18.32;;;;;;;7.83;90.04;98552.51;1606975;89;21090;-78
2022/12/09 11:42:19;;;;;;;40.35;17.37;;;;;;;7.90;90.44;98555.38;1595867;89;21078;-78
2022/12/09 11:45:03;;;;;;;32.08;16.25;;;;;;;7.99;89.89;98550.42;1602899;89;21099;-78
2022/12/09 11:47:38;;;;;;;34.18;15.83;;;;;;;8.04;89.61;98539.08;1597708;89;21082;-77
2022/12/09 11:50:31;;;;;;;35.70;15.48;;;;;;;7.94;88.49;98536.30;1613010;89;21891;-78